createdAt,value
2018-03-30T00:00:01.802Z,76.30
2018-03-30T00:02:32.791Z,76.20
2018-03-30T00:05:03.579Z,76.10
2018-03-30T00:07:34.485Z,76.10
2018-03-30T00:10:06.471Z,76.00
2018-03-30T00:12:37.791Z,76.00
2018-03-30T00:15:08.824Z,76.00
2018-03-30T00:17:38.975Z,75.90
2018-03-30T00:20:11.196Z,76.10
2018-03-30T00:22:42.764Z,76.10
2018-03-30T00:25:13.509Z,76.20
2018-03-30T00:27:44.583Z,76.40
2018-03-30T00:30:15.871Z,76.70
2018-03-30T00:32:46.744Z,76.70
2018-03-30T00:35:18.509Z,76.50
2018-03-30T00:37:49.561Z,76.60
2018-03-30T00:40:20.678Z,76.30
2018-03-30T00:42:51.920Z,76.30
2018-03-30T00:45:23.246Z,76.10
2018-03-30T00:47:54.170Z,76.10
2018-03-30T00:50:25.202Z,75.90
2018-03-30T00:52:56.234Z,75.80
2018-03-30T00:55:27.236Z,75.70
2018-03-30T00:57:58.223Z,75.70
2018-03-30T01:00:29.469Z,75.80
2018-03-30T01:03:01.003Z,75.90
2018-03-30T01:05:31.461Z,76.10
2018-03-30T01:08:02.802Z,76.20
2018-03-30T01:10:34.882Z,76.20
2018-03-30T01:13:06.600Z,76.20
2018-03-30T01:15:38.021Z,76.30
2018-03-30T01:18:23.882Z,76.50
2018-03-30T01:20:55.459Z,76.50
2018-03-30T01:23:26.304Z,76.80
2018-03-30T01:25:57.732Z,76.80
2018-03-30T01:28:28.715Z,76.90
2018-03-30T01:31:00.749Z,76.80
2018-03-30T01:33:32.316Z,76.70
2018-03-30T01:36:03.978Z,76.70
2018-03-30T01:38:35.227Z,77.20
2018-03-30T01:41:06.177Z,77.60
2018-03-30T01:43:39.180Z,77.90
2018-03-30T01:46:10.753Z,77.80
2018-03-30T01:48:42.126Z,77.90
2018-03-30T01:51:13.737Z,78.00
2018-03-30T01:53:44.591Z,77.80
2018-03-30T01:56:16.195Z,77.70
2018-03-30T01:58:47.404Z,77.60
2018-03-30T02:01:19.905Z,77.80
2018-03-30T02:03:51.106Z,78.00
2018-03-30T02:06:22.568Z,78.10
2018-03-30T02:08:54.030Z,78.40
2018-03-30T02:11:25.643Z,78.40
2018-03-30T02:13:56.455Z,78.30
2018-03-30T02:16:27.622Z,78.30
2018-03-30T02:19:00.333Z,78.60
2018-03-30T02:21:32.495Z,78.40
2018-03-30T02:24:03.844Z,78.20
2018-03-30T02:26:35.418Z,78.10
2018-03-30T02:29:06.945Z,78.00
2018-03-30T02:31:38.076Z,77.90
2018-03-30T02:34:10.115Z,77.80
2018-03-30T02:36:41.559Z,78.10
2018-03-30T02:39:13.474Z,78.30
2018-03-30T02:41:44.178Z,78.30
2018-03-30T02:44:15.318Z,78.80
2018-03-30T02:46:46.243Z,78.80
2018-03-30T02:49:17.034Z,78.70
2018-03-30T02:51:48.779Z,78.70
2018-03-30T02:54:20.228Z,78.80
2018-03-30T02:56:52.660Z,79.30
2018-03-30T02:59:24.740Z,79.10
2018-03-30T03:01:56.423Z,78.90
2018-03-30T03:04:27.641Z,78.80
2018-03-30T03:06:58.973Z,78.80
2018-03-30T03:09:30.785Z,78.60
2018-03-30T03:12:02.885Z,78.80
2018-03-30T03:14:34.603Z,79.10
2018-03-30T03:17:05.927Z,79.40
2018-03-30T03:19:37.445Z,79.60
2018-03-30T03:22:09.022Z,79.40
2018-03-30T03:24:41.041Z,79.30
2018-03-30T03:27:13.242Z,79.20
2018-03-30T03:29:44.592Z,79.20
2018-03-30T03:32:16.266Z,79.30
2018-03-30T03:34:48.015Z,79.50
2018-03-30T03:37:20.990Z,79.60
2018-03-30T03:39:53.803Z,79.50
2018-03-30T03:42:25.479Z,79.50
2018-03-30T03:44:56.996Z,79.60
2018-03-30T03:47:28.583Z,79.50
2018-03-30T03:49:59.859Z,79.30
2018-03-30T03:52:31.165Z,79.10
2018-03-30T03:55:02.782Z,79.10
2018-03-30T03:57:34.598Z,78.90
2018-03-30T04:00:05.854Z,79.10
2018-03-30T04:02:37.354Z,79.80
2018-03-30T04:05:08.749Z,79.90
2018-03-30T04:07:39.373Z,79.80
2018-03-30T04:10:14.540Z,79.80
2018-03-30T04:12:48.034Z,80.10
2018-03-30T04:15:19.418Z,80.00
2018-03-30T04:17:51.510Z,79.80
2018-03-30T04:20:22.761Z,79.80
2018-03-30T04:22:53.984Z,79.60
2018-03-30T04:25:24.916Z,79.50
2018-03-30T04:27:56.274Z,79.30
2018-03-30T04:30:27.295Z,79.10
2018-03-30T04:32:58.448Z,79.10
2018-03-30T04:35:29.434Z,78.90
2018-03-30T04:38:02.162Z,79.10
2018-03-30T04:40:33.385Z,79.00
2018-03-30T04:43:05.595Z,79.10
2018-03-30T04:45:37.544Z,79.60
2018-03-30T04:48:08.775Z,79.00
2018-03-30T04:50:40.275Z,79.10
2018-03-30T04:53:11.864Z,79.10
2018-03-30T04:55:42.944Z,79.20
2018-03-30T04:58:14.421Z,79.20
2018-03-30T05:00:50.307Z,79.20
2018-03-30T05:03:21.720Z,79.20
2018-03-30T05:05:53.159Z,79.30
2018-03-30T05:08:24.710Z,79.50
2018-03-30T05:10:56.270Z,79.60
2018-03-30T05:13:27.671Z,79.70
2018-03-30T05:15:59.127Z,79.80
2018-03-30T05:18:30.931Z,79.90
2018-03-30T05:21:02.276Z,80.00
2018-03-30T05:23:33.511Z,80.10
2018-03-30T05:26:04.956Z,80.10
2018-03-30T05:28:36.477Z,80.20
2018-03-30T05:31:09.241Z,80.20
2018-03-30T05:33:40.859Z,80.10
2018-03-30T05:36:12.467Z,80.20
2018-03-30T05:38:44.525Z,80.20
2018-03-30T05:41:15.950Z,80.10
2018-03-30T05:43:47.263Z,80.10
2018-03-30T05:46:19.166Z,80.10
2018-03-30T05:48:50.956Z,80.00
2018-03-30T05:51:22.561Z,79.80
2018-03-30T05:53:53.704Z,79.70
2018-03-30T05:56:25.205Z,79.60
2018-03-30T05:58:56.810Z,76.70
2018-03-30T06:01:28.220Z,79.30
2018-03-30T06:03:59.090Z,78.80
2018-03-30T06:06:30.528Z,78.50
2018-03-30T06:09:02.137Z,78.40
2018-03-30T06:11:33.591Z,77.90
2018-03-30T06:14:04.587Z,78.00
2018-03-30T06:16:35.288Z,77.70
2018-03-30T06:19:07.082Z,77.40
2018-03-30T06:21:38.310Z,77.20
2018-03-30T06:24:09.535Z,76.80
2018-03-30T06:26:41.144Z,75.80
2018-03-30T06:29:12.396Z,75.00
2018-03-30T06:31:44.696Z,74.30
2018-03-30T06:34:15.927Z,74.00
2018-03-30T06:36:47.057Z,73.40
2018-03-30T06:39:18.205Z,72.30
2018-03-30T06:41:50.080Z,70.30
2018-03-30T06:44:21.415Z,69.50
2018-03-30T06:46:52.199Z,67.30
2018-03-30T06:49:23.318Z,64.40
2018-03-30T06:51:54.112Z,59.60
2018-03-30T06:54:25.151Z,54.80
2018-03-30T06:56:55.718Z,50.30
2018-03-30T06:59:26.512Z,46.40
2018-03-30T07:01:57.211Z,43.40
2018-03-30T07:04:27.647Z,41.70
2018-03-30T07:06:57.616Z,39.60
2018-03-30T07:09:28.082Z,38.00
2018-03-30T07:11:58.855Z,35.40
2018-03-30T07:14:29.112Z,34.60
2018-03-30T07:16:59.553Z,33.80
2018-03-30T07:19:30.705Z,33.50
2018-03-30T07:22:01.112Z,32.80
2018-03-30T07:24:32.830Z,33.40
2018-03-30T07:27:03.696Z,34.40
2018-03-30T07:29:34.895Z,34.50
2018-03-30T07:32:14.548Z,35.20
2018-03-30T07:34:45.799Z,35.50
2018-03-30T07:37:16.732Z,36.00
2018-03-30T07:39:49.231Z,37.00
2018-03-30T07:42:24.865Z,39.20
2018-03-30T07:45:03.767Z,41.00
2018-03-30T07:47:35.386Z,40.80
2018-03-30T07:50:12.193Z,41.70
2018-03-30T07:52:43.289Z,41.60
2018-03-30T07:55:15.027Z,41.70
2018-03-30T07:57:46.671Z,41.20
2018-03-30T08:00:19.347Z,41.60
2018-03-30T08:02:50.438Z,42.30
2018-03-30T08:05:21.795Z,43.10
2018-03-30T08:07:59.392Z,44.10
2018-03-30T08:10:30.191Z,43.20
2018-03-30T08:13:00.924Z,43.40
2018-03-30T08:15:31.724Z,43.60
2018-03-30T08:18:02.510Z,44.00
2018-03-30T08:20:33.517Z,44.20
2018-03-30T08:23:04.216Z,43.60
2018-03-30T08:25:34.753Z,42.70
2018-03-30T08:28:05.863Z,42.20
2018-03-30T08:30:37.578Z,41.90
2018-03-30T08:33:08.062Z,41.30
2018-03-30T08:35:39.039Z,41.20
2018-03-30T08:38:09.851Z,42.00
2018-03-30T08:40:40.493Z,40.90
2018-03-30T08:43:10.949Z,39.70
2018-03-30T08:45:41.525Z,39.40
2018-03-30T08:48:11.940Z,39.60
2018-03-30T08:50:42.412Z,39.30
2018-03-30T08:53:13.071Z,39.30
2018-03-30T08:55:43.514Z,41.10
2018-03-30T08:58:14.565Z,40.40
2018-03-30T09:00:46.531Z,40.70
2018-03-30T09:03:17.222Z,42.40
2018-03-30T09:05:48.015Z,42.40
2018-03-30T09:08:18.487Z,42.30
2018-03-30T09:10:49.030Z,42.20
2018-03-30T09:13:19.525Z,42.40
2018-03-30T09:15:50.377Z,42.50
2018-03-30T09:18:20.844Z,42.70
2018-03-30T09:20:51.207Z,40.30
2018-03-30T09:23:21.690Z,39.50
2018-03-30T09:25:52.154Z,39.30
2018-03-30T09:28:22.465Z,39.20
2018-03-30T09:30:53.368Z,38.90
2018-03-30T09:33:28.266Z,39.10
2018-03-30T09:35:59.028Z,38.60
2018-03-30T09:38:29.621Z,37.70
2018-03-30T09:41:00.806Z,38.30
2018-03-30T09:43:31.264Z,38.40
2018-03-30T09:46:02.341Z,38.70
2018-03-30T09:48:32.997Z,38.00
2018-03-30T09:51:03.899Z,36.70
2018-03-30T09:53:34.428Z,36.10
2018-03-30T09:56:05.097Z,35.90
2018-03-30T09:58:35.182Z,34.90
2018-03-30T10:01:09.399Z,34.00
2018-03-30T10:03:40.913Z,34.20
2018-03-30T10:06:10.724Z,33.30
2018-03-30T10:08:41.153Z,31.10
2018-03-30T10:11:11.890Z,29.60
2018-03-30T10:13:41.979Z,30.90
2018-03-30T10:16:12.290Z,30.20
2018-03-30T10:18:42.861Z,30.30
2018-03-30T10:21:12.953Z,29.80
2018-03-30T10:23:43.531Z,29.70
2018-03-30T10:26:14.385Z,30.90
2018-03-30T10:28:44.968Z,32.60
2018-03-30T10:31:15.819Z,33.20
2018-03-30T10:33:46.398Z,33.10
2018-03-30T10:36:16.903Z,33.80
2018-03-30T10:38:47.320Z,34.30
2018-03-30T10:41:17.850Z,34.70
2018-03-30T10:43:47.880Z,35.20
2018-03-30T10:46:18.308Z,36.50
2018-03-30T10:48:48.841Z,36.40
2018-03-30T10:51:19.580Z,36.70
2018-03-30T10:53:50.041Z,36.20
2018-03-30T10:56:20.910Z,36.70
2018-03-30T10:58:51.856Z,37.70
2018-03-30T11:01:23.405Z,37.10
2018-03-30T11:03:53.913Z,37.70
2018-03-30T11:06:24.528Z,37.50
2018-03-30T11:08:54.601Z,38.60
2018-03-30T11:11:25.477Z,38.40
2018-03-30T11:13:56.298Z,38.70
2018-03-30T11:16:27.484Z,39.10
2018-03-30T11:18:58.742Z,38.10
2018-03-30T11:21:30.206Z,37.30
2018-03-30T11:24:00.657Z,36.40
2018-03-30T11:26:31.078Z,36.20
2018-03-30T11:29:01.463Z,36.00
2018-03-30T11:31:31.729Z,35.90
2018-03-30T11:34:01.976Z,35.70
2018-03-30T11:36:31.832Z,35.30
2018-03-30T11:39:02.183Z,36.10
2018-03-30T11:41:32.520Z,36.10
2018-03-30T11:44:02.786Z,37.00
2018-03-30T11:46:33.405Z,37.10
2018-03-30T11:49:04.044Z,38.10
2018-03-30T11:51:34.754Z,38.40
2018-03-30T11:54:05.337Z,38.70
2018-03-30T11:56:36.786Z,39.30
2018-03-30T11:59:07.228Z,38.80
2018-03-30T12:01:37.752Z,39.40
2018-03-30T12:04:08.266Z,38.90
2018-03-30T12:06:38.973Z,38.70
2018-03-30T12:09:10.790Z,39.50
2018-03-30T12:11:41.254Z,39.40
2018-03-30T12:14:12.896Z,39.00
2018-03-30T12:16:44.708Z,39.90
2018-03-30T12:19:15.562Z,39.20
2018-03-30T12:21:46.542Z,39.20
2018-03-30T12:24:17.330Z,38.60
2018-03-30T12:26:47.480Z,38.40
2018-03-30T12:29:18.084Z,38.70
2018-03-30T12:31:48.962Z,39.40
2018-03-30T12:34:19.787Z,39.50
2018-03-30T12:36:51.284Z,39.80
2018-03-30T12:39:22.150Z,40.20
2018-03-30T12:41:53.223Z,40.80
2018-03-30T12:44:24.228Z,41.00
2018-03-30T12:46:55.130Z,38.60
2018-03-30T12:49:25.816Z,40.90
2018-03-30T12:51:57.440Z,41.90
2018-03-30T12:56:59.658Z,42.40
2018-03-30T12:59:30.518Z,42.20
2018-03-30T13:02:01.589Z,42.00
2018-03-30T13:04:31.847Z,42.50
2018-03-30T13:07:02.820Z,42.30
2018-03-30T13:09:33.158Z,42.00
2018-03-30T13:12:03.919Z,42.00
2018-03-30T13:14:36.415Z,42.10
2018-03-30T13:17:06.728Z,42.30
2018-03-30T13:19:37.080Z,41.00
2018-03-30T13:22:07.716Z,41.60
2018-03-30T13:24:38.016Z,40.90
2018-03-30T13:27:08.609Z,40.80
2018-03-30T13:29:39.642Z,40.60
2018-03-30T13:32:10.026Z,41.00
2018-03-30T13:34:40.359Z,41.50
2018-03-30T13:37:10.558Z,40.60
2018-03-30T13:39:40.992Z,40.70
2018-03-30T13:42:11.051Z,40.60
2018-03-30T13:44:41.546Z,40.70
2018-03-30T13:47:13.980Z,40.80
2018-03-30T13:49:44.623Z,41.20
2018-03-30T13:52:15.517Z,41.50
2018-03-30T13:54:46.272Z,42.00
2018-03-30T13:57:17.074Z,41.40
2018-03-30T13:59:47.543Z,42.20
2018-03-30T14:02:17.759Z,42.60
2018-03-30T14:04:48.254Z,42.10
2018-03-30T14:07:18.677Z,41.90
2018-03-30T14:09:49.160Z,41.80
2018-03-30T14:12:20.087Z,42.20
2018-03-30T14:14:50.497Z,42.10
2018-03-30T14:17:21.990Z,42.20
2018-03-30T14:19:52.901Z,42.70
2018-03-30T14:22:23.816Z,43.10
2018-03-30T14:24:54.342Z,43.40
2018-03-30T14:27:25.330Z,43.70
2018-03-30T14:29:55.972Z,43.50
2018-03-30T14:32:26.479Z,43.50
2018-03-30T14:34:57.064Z,43.90
2018-03-30T14:37:27.485Z,44.10
2018-03-30T14:39:58.246Z,44.40
2018-03-30T14:42:28.779Z,44.60
2018-03-30T14:45:13.914Z,43.40
2018-03-30T14:47:44.631Z,43.20
2018-03-30T14:50:15.066Z,44.60
2018-03-30T14:52:45.589Z,43.90
2018-03-30T14:55:16.318Z,44.80
2018-03-30T14:57:47.555Z,45.40
2018-03-30T15:00:17.639Z,45.50
2018-03-30T15:02:47.815Z,45.80
2018-03-30T15:05:19.160Z,45.50
2018-03-30T15:07:50.666Z,46.10
2018-03-30T15:10:21.854Z,47.00
2018-03-30T15:12:52.450Z,48.00
2018-03-30T15:15:22.968Z,48.60
2018-03-30T15:17:53.709Z,50.30
2018-03-30T15:20:24.636Z,51.20
2018-03-30T15:22:55.876Z,52.20
2018-03-30T15:25:26.433Z,52.30
2018-03-30T15:27:57.043Z,54.00
2018-03-30T15:30:27.748Z,54.00
2018-03-30T15:32:58.389Z,55.00
2018-03-30T15:35:28.944Z,55.60
2018-03-30T15:37:59.369Z,54.80
2018-03-30T15:40:29.824Z,55.00
2018-03-30T15:43:02.057Z,55.90
2018-03-30T15:45:32.504Z,56.90
2018-03-30T15:48:03.235Z,56.60
2018-03-30T15:50:33.729Z,57.20
2018-03-30T15:53:04.624Z,57.10
2018-03-30T15:55:35.032Z,57.70
2018-03-30T15:58:05.669Z,58.00
2018-03-30T16:00:36.117Z,58.00
2018-03-30T16:03:06.679Z,57.70
2018-03-30T16:05:37.065Z,56.90
2018-03-30T16:08:13.724Z,58.00
2018-03-30T16:10:44.334Z,58.40
2018-03-30T16:13:14.989Z,58.50
2018-03-30T16:15:45.355Z,57.60
2018-03-30T16:18:16.209Z,58.90
2018-03-30T16:20:45.395Z,59.00
2018-03-30T16:23:14.455Z,59.20
2018-03-30T16:25:43.635Z,59.00
2018-03-30T16:28:12.715Z,59.10
2018-03-30T16:30:41.932Z,59.20
2018-03-30T16:33:10.937Z,59.30
2018-03-30T16:35:40.001Z,59.20
2018-03-30T16:38:09.228Z,59.50
2018-03-30T16:40:38.366Z,59.70
2018-03-30T16:43:07.604Z,59.80
2018-03-30T16:45:36.686Z,60.00
2018-03-30T16:48:05.911Z,60.40
2018-03-30T16:50:35.136Z,60.40
2018-03-30T16:53:04.294Z,61.00
2018-03-30T16:55:33.421Z,61.10
2018-03-30T16:58:02.511Z,61.30
2018-03-30T17:00:31.729Z,61.40
2018-03-30T17:03:00.766Z,61.50
2018-03-30T17:05:29.880Z,61.70
2018-03-30T17:07:58.957Z,61.80
2018-03-30T17:10:27.933Z,62.10
2018-03-30T17:12:56.996Z,62.00
2018-03-30T17:15:26.142Z,62.30
2018-03-30T17:17:55.210Z,62.40
2018-03-30T17:20:24.217Z,60.90
2018-03-30T17:22:52.879Z,62.30
2018-03-30T17:25:22.358Z,62.50
2018-03-30T17:27:51.451Z,62.90
2018-03-30T17:30:20.548Z,63.10
2018-03-30T17:32:50.616Z,63.10
2018-03-30T17:35:19.661Z,63.20
2018-03-30T17:37:48.820Z,64.30
2018-03-30T17:40:18.018Z,64.00
2018-03-30T17:42:47.032Z,64.10
2018-03-30T17:45:16.143Z,63.90
2018-03-30T17:47:45.259Z,63.70
2018-03-30T17:50:14.338Z,63.90
2018-03-30T17:52:43.360Z,63.70
2018-03-30T17:55:12.453Z,63.60
2018-03-30T17:57:41.539Z,63.70
2018-03-30T18:00:10.592Z,63.80
2018-03-30T18:02:39.616Z,64.10
2018-03-30T18:05:08.735Z,64.30
2018-03-30T18:07:37.799Z,64.40
2018-03-30T18:10:06.932Z,64.50
2018-03-30T18:12:36.003Z,64.50
2018-03-30T18:15:05.101Z,64.70
2018-03-30T18:17:34.184Z,64.70
2018-03-30T18:20:03.353Z,65.10
2018-03-30T18:22:34.158Z,65.30
2018-03-30T18:25:03.303Z,65.60
2018-03-30T18:27:32.392Z,65.70
2018-03-30T18:30:01.732Z,65.80
2018-03-30T18:32:31.033Z,65.90
2018-03-30T18:35:04.512Z,66.00
2018-03-30T18:37:33.622Z,66.20
2018-03-30T18:40:02.778Z,66.40
2018-03-30T18:42:37.566Z,66.60
2018-03-30T18:45:06.863Z,66.90
2018-03-30T18:47:35.730Z,67.60
2018-03-30T18:50:05.007Z,68.90
2018-03-30T18:52:34.089Z,69.20
2018-03-30T18:55:03.833Z,69.50
2018-03-30T18:57:34.084Z,69.70
2018-03-30T19:00:03.885Z,70.00
2018-03-30T19:02:33.004Z,70.40
2018-03-30T19:05:02.517Z,70.90
2018-03-30T19:07:32.438Z,71.50
2018-03-30T19:10:02.077Z,72.00
2018-03-30T19:21:33.402Z,73.90
2018-03-30T19:24:02.942Z,74.40
2018-03-30T19:26:32.007Z,74.40
2018-03-30T19:29:01.295Z,74.40
2018-03-30T19:31:30.483Z,74.60
2018-03-30T19:33:59.577Z,75.30
2018-03-30T19:36:28.350Z,75.00
2018-03-30T19:38:57.454Z,75.10
2018-03-30T19:41:26.658Z,77.30
2018-03-30T19:43:56.588Z,75.60
2018-03-30T19:46:25.369Z,75.50
2018-03-30T19:57:57.903Z,76.00
2018-03-30T20:00:27.145Z,75.90
2018-03-30T20:02:56.265Z,76.00
2018-03-30T20:05:25.313Z,74.70
2018-03-30T20:16:56.701Z,76.00
2018-03-30T20:19:25.856Z,76.00
2018-03-30T20:33:45.173Z,75.10
2018-03-30T20:54:18.664Z,74.60
2018-03-30T20:56:47.759Z,73.20
2018-03-30T20:59:16.812Z,74.50
2018-03-30T21:01:45.741Z,74.50
2018-03-30T21:04:15.665Z,74.40
2018-03-30T21:06:47.693Z,74.50
2018-03-30T21:09:16.663Z,74.70
2018-03-30T21:11:45.669Z,74.70
2018-03-30T21:14:15.349Z,74.80
2018-03-30T21:16:44.520Z,74.90
2018-03-30T21:19:14.235Z,74.90
2018-03-30T21:21:43.604Z,75.10
2018-03-30T21:24:12.277Z,75.30
2018-03-30T21:26:41.314Z,75.50
2018-03-30T21:29:10.466Z,75.80
2018-03-30T21:31:39.478Z,75.90
2018-03-30T21:34:08.253Z,76.20
2018-03-30T21:36:37.327Z,77.00
2018-03-30T21:39:06.347Z,76.50
2018-03-30T21:41:35.011Z,76.60
2018-03-30T21:44:04.321Z,76.40
2018-03-30T21:46:33.403Z,76.80
2018-03-30T21:49:03.226Z,77.20
2018-03-30T21:51:31.890Z,77.30
2018-03-30T21:54:00.914Z,77.50
2018-03-30T21:56:30.908Z,77.70
2018-03-30T21:58:59.904Z,77.60
2018-03-30T22:01:29.790Z,77.50
2018-03-30T22:03:59.079Z,77.60
2018-03-30T22:06:29.167Z,77.70
2018-03-30T22:08:58.942Z,78.50
2018-03-30T22:11:27.993Z,77.80
2018-03-30T22:13:57.249Z,77.90
2018-03-30T22:16:26.433Z,78.90
2018-03-30T22:18:55.473Z,77.80
2018-03-30T22:21:24.636Z,78.00
2018-03-30T22:23:53.802Z,77.90
2018-03-30T22:26:24.852Z,77.90
2018-03-30T22:28:53.967Z,78.10
2018-03-30T22:31:23.173Z,78.20
2018-03-30T22:33:52.340Z,78.40
2018-03-30T22:36:21.473Z,78.50
2018-03-30T22:38:50.536Z,78.30
2018-03-30T22:41:19.546Z,78.70
2018-03-30T22:43:49.402Z,78.50
2018-03-30T22:46:18.837Z,78.40
2018-03-30T22:48:47.924Z,78.60
2018-03-30T22:51:17.952Z,76.80
2018-03-30T22:53:46.968Z,79.20
2018-03-30T22:56:15.238Z,79.50
2018-03-30T22:58:44.516Z,79.70
2018-03-30T23:01:13.874Z,79.90
2018-03-30T23:03:42.931Z,79.80
2018-03-30T23:06:13.017Z,79.80
2018-03-30T23:08:43.887Z,79.70
2018-03-30T23:11:12.933Z,79.70
2018-03-30T23:13:42.004Z,79.70
2018-03-30T23:16:11.218Z,79.80
2018-03-30T23:18:43.233Z,80.20
2018-03-30T23:21:13.313Z,80.20
2018-03-30T23:23:42.847Z,80.00
2018-03-30T23:26:11.800Z,79.90
2018-03-30T23:28:41.891Z,79.80
2018-03-30T23:31:11.123Z,79.70
2018-03-30T23:33:40.238Z,79.70
2018-03-30T23:36:11.010Z,79.70
2018-03-30T23:38:39.862Z,79.70
2018-03-30T23:41:09.037Z,78.70
2018-03-30T23:43:38.578Z,80.00
2018-03-30T23:46:07.889Z,80.40
2018-03-30T23:48:37.131Z,80.40
2018-03-30T23:51:06.513Z,80.40
2018-03-30T23:53:36.189Z,80.20
2018-03-30T23:56:05.334Z,80.10
2018-03-30T23:58:34.469Z,80.30
